sensor_id;sensor_type;location;lat;lon;timestamp;pressure;altitude;pressure_sealevel;temperature;humidity
21960;BME280;11144;43.030;25.108;2023-02-28T00:00:09;99940.56;;;8.57;100.00
21960;BME280;11144;43.030;25.108;2023-02-28T00:01:43;99935.34;;;8.54;100.00
21960;BME280;11144;43.030;25.108;2023-02-28T00:03:16;99931.91;;;8.52;100.00
21960;BME280;11144;43.030;25.108;2023-02-28T00:04:50;99949.56;;;8.47;100.00
21960;BME280;11144;43.030;25.108;2023-02-28T00:06:24;99954.75;;;8.50;100.00
21960;BME280;11144;43.030;25.108;2023-02-28T00:07:58;99956.56;;;8.48;100.00
21960;BME280;11144;43.030;25.108;2023-02-28T00:09:32;99958.19;;;8.55;100.00
21960;BME280;11144;43.030;25.108;2023-02-28T00:11:08;99963.44;;;8.58;100.00
21960;BME280;11144;43.030;25.108;2023-02-28T00:12:42;99971.16;;;8.67;100.00
21960;BME280;11144;43.030;25.108;2023-02-28T00:14:15;99958.84;;;8.69;100.00
21960;BME280;11144;43.030;25.108;2023-02-28T00:15:59;99954.34;;;8.74;100.00
21960;BME280;11144;43.030;25.108;2023-02-28T00:17:32;99956.97;;;8.74;100.00
21960;BME280;11144;43.030;25.108;2023-02-28T00:19:06;99954.28;;;8.77;100.00
21960;BME280;11144;43.030;25.108;2023-02-28T00:20:39;99961.28;;;8.78;100.00
21960;BME280;11144;43.030;25.108;2023-02-28T00:22:12;99962.97;;;8.82;100.00
21960;BME280;11144;43.030;25.108;2023-02-28T00:23:45;99960.28;;;8.85;100.00
21960;BME280;11144;43.030;25.108;2023-02-28T00:25:22;99962.88;;;8.86;100.00
21960;BME280;11144;43.030;25.108;2023-02-28T00:26:55;99965.50;;;8.88;100.00
21960;BME280;11144;43.030;25.108;2023-02-28T00:28:29;99964.53;;;8.92;100.00
21960;BME280;11144;43.030;25.108;2023-02-28T00:30:04;99971.59;;;8.90;100.00
21960;BME280;11144;43.030;25.108;2023-02-28T00:31:38;99971.59;;;8.90;100.00
21960;BME280;11144;43.030;25.108;2023-02-28T00:33:12;99969.81;;;8.92;100.00
21960;BME280;11144;43.030;25.108;2023-02-28T00:34:45;99969.78;;;8.93;100.00
21960;BME280;11144;43.030;25.108;2023-02-28T00:36:19;99971.53;;;8.93;100.00
21960;BME280;11144;43.030;25.108;2023-02-28T00:37:52;99973.31;;;8.91;100.00
21960;BME280;11144;43.030;25.108;2023-02-28T00:39:25;99969.00;;;8.87;100.00
21960;BME280;11144;43.030;25.108;2023-02-28T00:41:01;99968.13;;;8.88;100.00
21960;BME280;11144;43.030;25.108;2023-02-28T00:42:36;99964.59;;;8.89;100.00
21960;BME280;11144;43.030;25.108;2023-02-28T00:44:10;99962.78;;;8.91;100.00
21960;BME280;11144;43.030;25.108;2023-02-28T00:45:43;99967.13;;;8.95;100.00
21960;BME280;11144;43.030;25.108;2023-02-28T00:47:17;99957.50;;;8.91;100.00
21960;BME280;11144;43.030;25.108;2023-02-28T00:48:50;99967.19;;;8.92;100.00
21960;BME280;11144;43.030;25.108;2023-02-28T00:50:24;99961.91;;;8.92;100.00
21960;BME280;11144;43.030;25.108;2023-02-28T00:51:57;99963.59;;;8.96;100.00
21960;BME280;11144;43.030;25.108;2023-02-28T00:53:30;99952.06;;;9.00;100.00
21960;BME280;11144;43.030;25.108;2023-02-28T00:55:05;99961.69;;;9.02;100.00
21960;BME280;11144;43.030;25.108;2023-02-28T00:56:40;99953.75;;;9.04;100.00
21960;BME280;11144;43.030;25.108;2023-02-28T00:58:13;99958.16;;;9.02;100.00
21960;BME280;11144;43.030;25.108;2023-02-28T00:59:47;99952.94;;;9.00;100.00
21960;BME280;11144;43.030;25.108;2023-02-28T01:01:20;99951.19;;;8.99;100.00
21960;BME280;11144;43.030;25.108;2023-02-28T01:02:54;99947.72;;;8.99;100.00
21960;BME280;11144;43.030;25.108;2023-02-28T01:04:27;99949.50;;;8.95;100.00
21960;BME280;11144;43.030;25.108;2023-02-28T01:06:00;99959.13;;;8.98;100.00
21960;BME280;11144;43.030;25.108;2023-02-28T01:07:33;99956.47;;;8.99;100.00
21960;BME280;11144;43.030;25.108;2023-02-28T01:09:07;99960.81;;;9.02;100.00
21960;BME280;11144;43.030;25.108;2023-02-28T01:10:40;99950.25;;;9.02;100.00
21960;BME280;11144;43.030;25.108;2023-02-28T01:12:15;99959.03;;;9.04;100.00
21960;BME280;11144;43.030;25.108;2023-02-28T01:13:51;99953.69;;;9.07;100.00
21960;BME280;11144;43.030;25.108;2023-02-28T01:15:25;99951.97;;;9.06;100.00
21960;BME280;11144;43.030;25.108;2023-02-28T01:16:58;99956.28;;;9.10;100.00
21960;BME280;11144;43.030;25.108;2023-02-28T01:18:32;99950.09;;;9.11;100.00
21960;BME280;11144;43.030;25.108;2023-02-28T01:20:07;99957.09;;;9.12;100.00
21960;BME280;11144;43.030;25.108;2023-02-28T01:21:42;99943.81;;;9.16;100.00
21960;BME280;11144;43.030;25.108;2023-02-28T01:23:17;99948.16;;;9.19;100.00
21960;BME280;11144;43.030;25.108;2023-02-28T01:24:51;99937.59;;;9.19;100.00
21960;BME280;11144;43.030;25.108;2023-02-28T01:26:24;99948.09;;;9.22;100.00
21960;BME280;11144;43.030;25.108;2023-02-28T01:27:59;99946.44;;;9.18;100.00
21960;BME280;11144;43.030;25.108;2023-02-28T01:29:33;99955.16;;;9.20;100.00
21960;BME280;11144;43.030;25.108;2023-02-28T01:31:06;99958.66;;;9.22;100.00
21960;BME280;11144;43.030;25.108;2023-02-28T01:32:42;99958.59;;;9.25;100.00
21960;BME280;11144;43.030;25.108;2023-02-28T01:34:15;99948.06;;;9.25;100.00
21960;BME280;11144;43.030;25.108;2023-02-28T01:35:57;99955.06;;;9.26;100.00
21960;BME280;11144;43.030;25.108;2023-02-28T01:37:30;99962.97;;;9.26;100.00
21960;BME280;11144;43.030;25.108;2023-02-28T01:39:04;99952.44;;;9.24;100.00
21960;BME280;11144;43.030;25.108;2023-02-28T01:40:38;99947.16;;;9.24;100.00
21960;BME280;11144;43.030;25.108;2023-02-28T01:42:10;99944.50;;;9.26;100.00
21960;BME280;11144;43.030;25.108;2023-02-28T01:44:06;99946.38;;;9.21;100.00
21960;BME280;11144;43.030;25.108;2023-02-28T01:45:40;99959.47;;;9.24;100.00
21960;BME280;11144;43.030;25.108;2023-02-28T01:47:13;99962.97;;;9.26;100.00
21960;BME280;11144;43.030;25.108;2023-02-28T01:48:49;99959.47;;;9.24;100.00
21960;BME280;11144;43.030;25.108;2023-02-28T01:50:27;99965.56;;;9.29;100.00
21960;BME280;11144;43.030;25.108;2023-02-28T01:52:03;99967.28;;;9.30;100.00
21960;BME280;11144;43.030;25.108;2023-02-28T01:53:44;99965.63;;;9.26;100.00
21960;BME280;11144;43.030;25.108;2023-02-28T01:55:19;99971.84;;;9.22;100.00
21960;BME280;11144;43.030;25.108;2023-02-28T01:56:56;99970.13;;;9.21;100.00
21960;BME280;11144;43.030;25.108;2023-02-28T01:58:32;99964.81;;;9.22;100.00
21960;BME280;11144;43.030;25.108;2023-02-28T02:00:09;99969.44;;;9.11;100.00
21960;BME280;11144;43.030;25.108;2023-02-28T02:01:44;99982.63;;;9.11;100.00
21960;BME280;11144;43.030;25.108;2023-02-28T02:03:20;99984.38;;;9.11;100.00
21960;BME280;11144;43.030;25.108;2023-02-28T02:04:56;99991.44;;;9.09;100.00
21960;BME280;11144;43.030;25.108;2023-02-28T02:06:34;99999.31;;;9.12;100.00
21960;BME280;11144;43.030;25.108;2023-02-28T02:08:13;99997.53;;;9.14;100.00
21960;BME280;11144;43.030;25.108;2023-02-28T02:09:47;100010.78;;;9.09;100.00
21960;BME280;11144;43.030;25.108;2023-02-28T02:11:22;100001.22;;;9.04;100.00
21960;BME280;11144;43.030;25.108;2023-02-28T02:13:25;99993.31;;;9.04;100.00
21960;BME280;11144;43.030;25.108;2023-02-28T02:15:05;99998.50;;;9.08;100.00
21960;BME280;11144;43.030;25.108;2023-02-28T02:16:55;100002.94;;;9.05;100.00
21960;BME280;11144;43.030;25.108;2023-02-28T02:18:36;99999.44;;;9.06;100.00
21960;BME280;11144;43.030;25.108;2023-02-28T02:22:55;100014.44;;;9.02;100.00
21960;BME280;11144;43.030;25.108;2023-02-28T02:25:15;100014.34;;;9.08;100.00
21960;BME280;11144;43.030;25.108;2023-02-28T02:27:02;100006.50;;;9.04;100.00
21960;BME280;11144;43.030;25.108;2023-02-28T02:29:03;99996.06;;;8.98;100.00
21960;BME280;11144;43.030;25.108;2023-02-28T02:30:57;100007.38;;;9.04;100.00
21960;BME280;11144;43.030;25.108;2023-02-28T02:34:58;100008.28;;;9.02;100.00
21960;BME280;11144;43.030;25.108;2023-02-28T02:36:38;99997.88;;;8.96;100.00
21960;BME280;11144;43.030;25.108;2023-02-28T02:38:20;100001.31;;;8.98;100.00
21960;BME280;11144;43.030;25.108;2023-02-28T02:40:00;100004.00;;;8.96;100.00
21960;BME280;11144;43.030;25.108;2023-02-28T02:41:41;100004.88;;;8.97;100.00
21960;BME280;11144;43.030;25.108;2023-02-28T02:43:21;99994.31;;;8.97;100.00
21960;BME280;11144;43.030;25.108;2023-02-28T02:45:03;99984.69;;;8.96;100.00
21960;BME280;11144;43.030;25.108;2023-02-28T02:46:41;99983.78;;;8.97;100.00
21960;BME280;11144;43.030;25.108;2023-02-28T02:48:17;99978.50;;;8.97;100.00
21960;BME280;11144;43.030;25.108;2023-02-28T02:49:57;99968.84;;;8.96;100.00
21960;BME280;11144;43.030;25.108;2023-02-28T02:51:36;99968.06;;;8.91;100.00
21960;BME280;11144;43.030;25.108;2023-02-28T02:53:11;99959.44;;;8.81;100.00
21960;BME280;11144;43.030;25.108;2023-02-28T02:54:48;99956.25;;;8.66;100.00
21960;BME280;11144;43.030;25.108;2023-02-28T02:56:26;99960.78;;;8.58;100.00
21960;BME280;11144;43.030;25.108;2023-02-28T02:58:03;99958.28;;;8.49;100.00
21960;BME280;11144;43.030;25.108;2023-02-28T02:59:39;99961.84;;;8.48;100.00
21960;BME280;11144;43.030;25.108;2023-02-28T03:01:14;99960.97;;;8.46;100.00
21960;BME280;11144;43.030;25.108;2023-02-28T03:02:52;99963.66;;;8.43;100.00
21960;BME280;11144;43.030;25.108;2023-02-28T03:04:30;99961.88;;;8.45;100.00
21960;BME280;11144;43.030;25.108;2023-02-28T03:06:06;99957.50;;;8.44;100.00
21960;BME280;11144;43.030;25.108;2023-02-28T03:07:40;99952.34;;;8.38;100.00
21960;BME280;11144;43.030;25.108;2023-02-28T03:09:14;99952.34;;;8.36;100.00
21960;BME280;11144;43.030;25.108;2023-02-28T03:10:51;99949.91;;;8.26;100.00
21960;BME280;11144;43.030;25.108;2023-02-28T03:12:32;99942.97;;;8.22;100.00
21960;BME280;11144;43.030;25.108;2023-02-28T03:14:25;99948.25;;;8.19;100.00
21960;BME280;11144;43.030;25.108;2023-02-28T03:16:15;99936.03;;;8.15;100.00
21960;BME280;11144;43.030;25.108;2023-02-28T03:18:01;99949.91;;;8.26;100.00
21960;BME280;11144;43.030;25.108;2023-02-28T03:19:51;99937.56;;;8.28;100.00
21960;BME280;11144;43.030;25.108;2023-02-28T03:21:37;99941.88;;;8.33;100.00
21960;BME280;11144;43.030;25.108;2023-02-28T03:23:16;99943.69;;;8.31;100.00
21960;BME280;11144;43.030;25.108;2023-02-28T03:24:56;99953.34;;;8.31;100.00
21960;BME280;11144;43.030;25.108;2023-02-28T03:26:34;99951.59;;;8.30;100.00
21960;BME280;11144;43.030;25.108;2023-02-28T03:28:14;99956.81;;;8.33;100.00
21960;BME280;11144;43.030;25.108;2023-02-28T03:29:51;99956.78;;;8.36;100.00
21960;BME280;11144;43.030;25.108;2023-02-28T03:31:32;99950.69;;;8.32;100.00
21960;BME280;11144;43.030;25.108;2023-02-28T03:33:09;99961.97;;;8.39;100.00
21960;BME280;11144;43.030;25.108;2023-02-28T03:34:50;99964.47;;;8.48;100.00
21960;BME280;11144;43.030;25.108;2023-02-28T03:36:30;99968.78;;;8.52;100.00
21960;BME280;11144;43.030;25.108;2023-02-28T03:38:10;99975.75;;;8.56;100.00
21960;BME280;11144;43.030;25.108;2023-02-28T03:39:49;99980.09;;;8.58;100.00
21960;BME280;11144;43.030;25.108;2023-02-28T03:41:29;99982.59;;;8.66;100.00
21960;BME280;11144;43.030;25.108;2023-02-28T03:43:09;99975.47;;;8.71;100.00
21960;BME280;11144;43.030;25.108;2023-02-28T03:44:49;99971.03;;;8.74;100.00
21960;BME280;11144;43.030;25.108;2023-02-28T03:46:27;99961.34;;;8.75;100.00
21960;BME280;11144;43.030;25.108;2023-02-28T03:48:06;99970.16;;;8.74;100.00
21960;BME280;11144;43.030;25.108;2023-02-28T03:49:46;99971.94;;;8.72;100.00
21960;BME280;11144;43.030;25.108;2023-02-28T03:51:23;99978.09;;;8.71;100.00
21960;BME280;11144;43.030;25.108;2023-02-28T03:53:01;99984.16;;;8.76;100.00
21960;BME280;11144;43.030;25.108;2023-02-28T03:54:42;99971.81;;;8.78;100.00
21960;BME280;11144;43.030;25.108;2023-02-28T03:56:19;99973.59;;;8.76;100.00
21960;BME280;11144;43.030;25.108;2023-02-28T03:57:58;99976.31;;;8.74;100.00
21960;BME280;11144;43.030;25.108;2023-02-28T03:59:36;99983.19;;;8.81;100.00
21960;BME280;11144;43.030;25.108;2023-02-28T04:01:16;99984.00;;;8.85;100.00
21960;BME280;11144;43.030;25.108;2023-02-28T04:02:52;99987.41;;;8.90;100.00
21960;BME280;11144;43.030;25.108;2023-02-28T04:04:26;99993.56;;;8.90;100.00
21960;BME280;11144;43.030;25.108;2023-02-28T04:06:00;99997.03;;;8.92;100.00
21960;BME280;11144;43.030;25.108;2023-02-28T04:07:33;99993.56;;;8.90;100.00
21960;BME280;11144;43.030;25.108;2023-02-28T04:09:10;99998.91;;;8.87;100.00
21960;BME280;11144;43.030;25.108;2023-02-28T04:10:46;100005.94;;;8.87;100.00
21960;BME280;11144;43.030;25.108;2023-02-28T04:12:23;99998.09;;;8.84;100.00
21960;BME280;11144;43.030;25.108;2023-02-28T04:13:56;99991.25;;;8.74;100.00
21960;BME280;11144;43.030;25.108;2023-02-28T04:15:30;99991.28;;;8.71;100.00
21960;BME280;11144;43.030;25.108;2023-02-28T04:17:04;99993.81;;;8.77;100.00
21960;BME280;11144;43.030;25.108;2023-02-28T04:18:38;99993.81;;;8.77;100.00
21960;BME280;11144;43.030;25.108;2023-02-28T04:20:12;99992.00;;;8.79;100.00
21960;BME280;11144;43.030;25.108;2023-02-28T04:21:48;99991.94;;;8.83;100.00
21960;BME280;11144;43.030;25.108;2023-02-28T04:23:21;99994.50;;;8.88;100.00
21960;BME280;11144;43.030;25.108;2023-02-28T04:24:55;99991.84;;;8.89;100.00
21960;BME280;11144;43.030;25.108;2023-02-28T04:26:29;99998.81;;;8.92;100.00
21960;BME280;11144;43.030;25.108;2023-02-28T04:28:04;99999.69;;;8.91;100.00
21960;BME280;11144;43.030;25.108;2023-02-28T04:29:38;100003.13;;;8.96;100.00
21960;BME280;11144;43.030;25.108;2023-02-28T04:31:11;99996.94;;;8.98;100.00
21960;BME280;11144;43.030;25.108;2023-02-28T04:32:45;99999.66;;;8.94;100.00
21960;BME280;11144;43.030;25.108;2023-02-28T04:34:18;99996.13;;;8.95;100.00
21960;BME280;11144;43.030;25.108;2023-02-28T04:36:00;99997.88;;;8.96;100.00
21960;BME280;11144;43.030;25.108;2023-02-28T04:37:34;100004.81;;;9.00;100.00
21960;BME280;11144;43.030;25.108;2023-02-28T04:39:08;99993.38;;;8.99;100.00
21960;BME280;11144;43.030;25.108;2023-02-28T04:40:42;100008.22;;;9.05;100.00
21960;BME280;11144;43.030;25.108;2023-02-28T04:42:17;100006.41;;;9.08;100.00
21960;BME280;11144;43.030;25.108;2023-02-28T04:43:51;100004.59;;;9.12;100.00
21960;BME280;11144;43.030;25.108;2023-02-28T04:45:25;100004.56;;;9.13;100.00
21960;BME280;11144;43.030;25.108;2023-02-28T04:47:02;100000.97;;;9.16;100.00
21960;BME280;11144;43.030;25.108;2023-02-28T04:48:37;100003.69;;;9.13;100.00
21960;BME280;11144;43.030;25.108;2023-02-28T04:50:11;100002.81;;;9.14;100.00
21960;BME280;11144;43.030;25.108;2023-02-28T04:51:44;100006.31;;;9.13;100.00
21960;BME280;11144;43.030;25.108;2023-02-28T04:53:17;99999.31;;;9.12;100.00
21960;BME280;11144;43.030;25.108;2023-02-28T04:54:51;100002.84;;;9.11;100.00
21960;BME280;11144;43.030;25.108;2023-02-28T04:56:24;99997.63;;;9.08;100.00
21960;BME280;11144;43.030;25.108;2023-02-28T04:57:59;100005.56;;;9.06;100.00
21960;BME280;11144;43.030;25.108;2023-02-28T04:59:33;100003.13;;;8.96;100.00
21960;BME280;11144;43.030;25.108;2023-02-28T05:01:14;100012.06;;;8.89;100.00
21960;BME280;11144;43.030;25.108;2023-02-28T05:02:49;100006.88;;;8.83;100.00
21960;BME280;11144;43.030;25.108;2023-02-28T05:04:22;100007.84;;;8.79;100.00
21960;BME280;11144;43.030;25.108;2023-02-28T05:05:55;100006.09;;;8.79;100.00
21960;BME280;11144;43.030;25.108;2023-02-28T05:07:28;99999.97;;;8.76;100.00
21960;BME280;11144;43.030;25.108;2023-02-28T05:09:01;100013.00;;;8.85;100.00
21960;BME280;11144;43.030;25.108;2023-02-28T05:10:35;100022.56;;;8.92;100.00
21960;BME280;11144;43.030;25.108;2023-02-28T05:12:09;100015.41;;;8.97;100.00
21960;BME280;11144;43.030;25.108;2023-02-28T05:13:44;100012.88;;;8.91;100.00
21960;BME280;11144;43.030;25.108;2023-02-28T05:15:18;100018.97;;;8.96;100.00
21960;BME280;11144;43.030;25.108;2023-02-28T05:16:51;100013.78;;;8.90;100.00
21960;BME280;11144;43.030;25.108;2023-02-28T05:18:25;100019.91;;;8.93;100.00
21960;BME280;11144;43.030;25.108;2023-02-28T05:19:58;100018.97;;;8.96;100.00
21960;BME280;11144;43.030;25.108;2023-02-28T05:21:51;100025.88;;;9.03;100.00
21960;BME280;11144;43.030;25.108;2023-02-28T05:23:24;100024.06;;;9.05;100.00
21960;BME280;11144;43.030;25.108;2023-02-28T05:24:58;100034.56;;;9.08;100.00
21960;BME280;11144;43.030;25.108;2023-02-28T05:26:34;100031.09;;;9.06;100.00
21960;BME280;11144;43.030;25.108;2023-02-28T05:28:08;100039.94;;;9.02;100.00
21960;BME280;11144;43.030;25.108;2023-02-28T05:29:43;100039.09;;;9.00;100.00
21960;BME280;11144;43.030;25.108;2023-02-28T05:31:16;100038.34;;;8.95;100.00
21960;BME280;11144;43.030;25.108;2023-02-28T05:32:50;100033.97;;;8.91;100.00
21960;BME280;11144;43.030;25.108;2023-02-28T05:34:24;100045.38;;;8.93;100.00
21960;BME280;11144;43.030;25.108;2023-02-28T05:35:57;100038.34;;;8.93;100.00
21960;BME280;11144;43.030;25.108;2023-02-28T05:37:31;100048.97;;;8.89;100.00
21960;BME280;11144;43.030;25.108;2023-02-28T05:39:03;100037.00;;;8.70;100.00
21960;BME280;11144;43.030;25.108;2023-02-28T05:40:38;100047.81;;;8.55;100.00
21960;BME280;11144;43.030;25.108;2023-02-28T05:42:12;100056.78;;;8.42;100.00
21960;BME280;11144;43.030;25.108;2023-02-28T05:43:46;100057.13;;;8.19;100.00
21960;BME280;11144;43.030;25.108;2023-02-28T05:45:21;100051.97;;;8.09;100.00
21960;BME280;11144;43.030;25.108;2023-02-28T05:46:54;100060.84;;;8.02;100.00
21960;BME280;11144;43.030;25.108;2023-02-28T05:48:27;100055.66;;;7.99;100.00
21960;BME280;11144;43.030;25.108;2023-02-28T05:50:00;100058.34;;;7.93;100.00
21960;BME280;11144;43.030;25.108;2023-02-28T05:51:33;100069.81;;;7.89;100.00
21960;BME280;11144;43.030;25.108;2023-02-28T05:53:08;100069.06;;;7.81;100.00
21960;BME280;11144;43.030;25.108;2023-02-28T05:54:42;100060.28;;;7.79;100.00
21960;BME280;11144;43.030;25.108;2023-02-28T05:56:15;100076.97;;;7.81;100.00
21960;BME280;11144;43.030;25.108;2023-02-28T05:57:48;100078.69;;;7.82;100.00
21960;BME280;11144;43.030;25.108;2023-02-28T05:59:22;100076.09;;;7.79;100.00
21960;BME280;11144;43.030;25.108;2023-02-28T06:00:57;100078.78;;;7.73;100.00
21960;BME280;11144;43.030;25.108;2023-02-28T06:02:31;100063.16;;;7.61;100.00
21960;BME280;11144;43.030;25.108;2023-02-28T06:04:06;100071.03;;;7.64;100.00
21960;BME280;11144;43.030;25.108;2023-02-28T06:05:50;100072.69;;;7.69;100.00
21960;BME280;11144;43.030;25.108;2023-02-28T06:07:23;100073.66;;;7.64;100.00
21960;BME280;11144;43.030;25.108;2023-02-28T06:08:56;100070.22;;;7.59;100.00
21960;BME280;11144;43.030;25.108;2023-02-28T06:10:29;100078.94;;;7.61;100.00
21960;BME280;11144;43.030;25.108;2023-02-28T06:12:04;100082.41;;;7.66;100.00
21960;BME280;11144;43.030;25.108;2023-02-28T06:13:39;100078.91;;;7.64;100.00
21960;BME280;11144;43.030;25.108;2023-02-28T06:15:13;100069.31;;;7.60;100.00
21960;BME280;11144;43.030;25.108;2023-02-28T06:16:48;100078.88;;;7.67;100.00
21960;BME280;11144;43.030;25.108;2023-02-28T06:18:21;100085.88;;;7.68;100.00
21960;BME280;11144;43.030;25.108;2023-02-28T06:19:55;100075.38;;;7.65;100.00
21960;BME280;11144;43.030;25.108;2023-02-28T06:21:28;100079.81;;;7.63;100.00
21960;BME280;11144;43.030;25.108;2023-02-28T06:23:02;100078.91;;;7.64;100.00
21960;BME280;11144;43.030;25.108;2023-02-28T06:24:36;100072.75;;;7.63;100.00
21960;BME280;11144;43.030;25.108;2023-02-28T06:26:09;100076.28;;;7.62;100.00
21960;BME280;11144;43.030;25.108;2023-02-28T06:27:43;100078.09;;;7.60;100.00
21960;BME280;11144;43.030;25.108;2023-02-28T06:29:17;100082.44;;;7.63;100.00
21960;BME280;11144;43.030;25.108;2023-02-28T06:30:50;100079.81;;;7.61;100.00
21960;BME280;11144;43.030;25.108;2023-02-28T06:32:25;100089.44;;;7.64;100.00
21960;BME280;11144;43.030;25.108;2023-02-28T06:33:59;100080.66;;;7.65;100.00
21960;BME280;11144;43.030;25.108;2023-02-28T06:35:31;100073.59;;;7.70;100.00
21960;BME280;11144;43.030;25.108;2023-02-28T06:37:05;100079.69;;;7.72;100.00
21960;BME280;11144;43.030;25.108;2023-02-28T06:38:38;100073.50;;;7.76;100.00
21960;BME280;11144;43.030;25.108;2023-02-28T06:40:13;100077.03;;;7.75;100.00
21960;BME280;11144;43.030;25.108;2023-02-28T06:41:46;100068.25;;;7.73;100.00
21960;BME280;11144;43.030;25.108;2023-02-28T06:43:28;100068.31;;;7.70;100.00
21960;BME280;11144;43.030;25.108;2023-02-28T06:45:02;100079.72;;;7.69;100.00
21960;BME280;11144;43.030;25.108;2023-02-28T06:46:41;100071.75;;;7.75;100.00
21960;BME280;11144;43.030;25.108;2023-02-28T06:48:16;100072.53;;;7.83;100.00
21960;BME280;11144;43.030;25.108;2023-02-28T06:49:51;100068.13;;;7.85;100.00
21960;BME280;11144;43.030;25.108;2023-02-28T06:51:24;100065.41;;;7.89;100.00
21960;BME280;11144;43.030;25.108;2023-02-28T06:52:59;100066.28;;;7.90;100.00
21960;BME280;11144;43.030;25.108;2023-02-28T06:54:32;100075.13;;;7.86;100.00
21960;BME280;11144;43.030;25.108;2023-02-28T06:56:06;100066.44;;;7.81;100.00
21960;BME280;11144;43.030;25.108;2023-02-28T06:57:40;100064.72;;;7.77;100.00
21960;BME280;11144;43.030;25.108;2023-02-28T06:59:13;100072.63;;;7.77;100.00
21960;BME280;11144;43.030;25.108;2023-02-28T07:00:50;100077.03;;;7.73;100.00
21960;BME280;11144;43.030;25.108;2023-02-28T07:02:24;100076.13;;;7.74;100.00
21960;BME280;11144;43.030;25.108;2023-02-28T07:03:59;100087.53;;;7.75;100.00
21960;BME280;11144;43.030;25.108;2023-02-28T07:05:34;100084.84;;;7.81;100.00
21960;BME280;11144;43.030;25.108;2023-02-28T07:07:07;100080.44;;;7.83;100.00
21960;BME280;11144;43.030;25.108;2023-02-28T07:08:41;100083.94;;;7.85;100.00
21960;BME280;11144;43.030;25.108;2023-02-28T07:10:14;100094.44;;;7.86;100.00
21960;BME280;11144;43.030;25.108;2023-02-28T07:11:51;100098.84;;;7.84;100.00
21960;BME280;11144;43.030;25.108;2023-02-28T07:13:24;100101.47;;;7.83;100.00
21960;BME280;11144;43.030;25.108;2023-02-28T07:14:58;100099.69;;;7.88;100.00
21960;BME280;11144;43.030;25.108;2023-02-28T07:16:31;100096.31;;;7.77;100.00
21960;BME280;11144;43.030;25.108;2023-02-28T07:18:04;100099.72;;;7.85;100.00
21960;BME280;11144;43.030;25.108;2023-02-28T07:19:39;100101.47;;;7.83;100.00
21960;BME280;11144;43.030;25.108;2023-02-28T07:21:20;100097.09;;;7.85;100.00
21960;BME280;11144;43.030;25.108;2023-02-28T07:23:00;100103.16;;;7.90;100.00
21960;BME280;11144;43.030;25.108;2023-02-28T07:24:46;100108.47;;;7.85;100.00
21960;BME280;11144;43.030;25.108;2023-02-28T07:26:27;100105.81;;;7.88;100.00
21960;BME280;11144;43.030;25.108;2023-02-28T07:28:00;100111.03;;;7.93;100.00
21960;BME280;11144;43.030;25.108;2023-02-28T07:29:34;100109.28;;;7.93;100.00
21960;BME280;11144;43.030;25.108;2023-02-28T07:31:10;100116.31;;;7.90;100.00
21960;BME280;11144;43.030;25.108;2023-02-28T07:32:44;100114.56;;;7.90;100.00
21960;BME280;11144;43.030;25.108;2023-02-28T07:34:18;100120.75;;;7.88;100.00
21960;BME280;11144;43.030;25.108;2023-02-28T07:36:03;100120.66;;;7.92;100.00
21960;BME280;11144;43.030;25.108;2023-02-28T07:37:59;100114.59;;;7.89;100.00
21960;BME280;11144;43.030;25.108;2023-02-28T07:39:32;100107.63;;;7.83;100.00
21960;BME280;11144;43.030;25.108;2023-02-28T07:41:06;100118.19;;;7.80;100.00
21960;BME280;11144;43.030;25.108;2023-02-28T07:42:40;100116.44;;;7.82;100.00
21960;BME280;11144;43.030;25.108;2023-02-28T07:44:14;100115.47;;;7.88;100.00
21960;BME280;11144;43.030;25.108;2023-02-28T07:45:47;100124.22;;;7.90;100.00
21960;BME280;11144;43.030;25.108;2023-02-28T07:47:21;100117.19;;;7.92;100.00
21960;BME280;11144;43.030;25.108;2023-02-28T07:48:56;100119.81;;;7.92;100.00
21960;BME280;11144;43.030;25.108;2023-02-28T07:50:31;100122.38;;;7.95;100.00
21960;BME280;11144;43.030;25.108;2023-02-28T07:52:08;100131.16;;;7.97;100.00
21960;BME280;11144;43.030;25.108;2023-02-28T07:53:43;100126.84;;;7.90;100.00
21960;BME280;11144;43.030;25.108;2023-02-28T07:55:16;100118.91;;;7.93;100.00
21960;BME280;11144;43.030;25.108;2023-02-28T07:56:50;100124.22;;;7.90;100.00
21960;BME280;11144;43.030;25.108;2023-02-28T07:58:24;100120.81;;;7.82;100.00
21960;BME280;11144;43.030;25.108;2023-02-28T07:59:57;100120.81;;;7.80;100.00
21960;BME280;11144;43.030;25.108;2023-02-28T08:01:42;100107.72;;;7.76;100.00
21960;BME280;11144;43.030;25.108;2023-02-28T08:03:17;100113.75;;;7.84;100.00
21960;BME280;11144;43.030;25.108;2023-02-28T08:04:51;100118.13;;;7.88;100.00
21960;BME280;11144;43.030;25.108;2023-02-28T08:06:25;100112.81;;;7.89;100.00
21960;BME280;11144;43.030;25.108;2023-02-28T08:08:00;100118.19;;;7.80;100.00
21960;BME280;11144;43.030;25.108;2023-02-28T08:09:34;100110.38;;;7.73;100.00
21960;BME280;11144;43.030;25.108;2023-02-28T08:11:07;100113.81;;;7.81;100.00
21960;BME280;11144;43.030;25.108;2023-02-28T08:12:40;100120.91;;;7.73;100.00
21960;BME280;11144;43.030;25.108;2023-02-28T08:14:15;100129.63;;;7.78;100.00
21960;BME280;11144;43.030;25.108;2023-02-28T08:15:48;100125.28;;;7.75;100.00
21960;BME280;11144;43.030;25.108;2023-02-28T08:17:21;100126.25;;;7.67;100.00
21960;BME280;11144;43.030;25.108;2023-02-28T08:18:55;100122.84;;;7.59;100.00
21960;BME280;11144;43.030;25.108;2023-02-28T08:20:28;100128.94;;;7.61;100.00
21960;BME280;11144;43.030;25.108;2023-02-28T08:22:02;100125.41;;;7.62;100.00
21960;BME280;11144;43.030;25.108;2023-02-28T08:23:36;100114.03;;;7.63;100.00